createdAt,value
2022-11-29T00:01:42.363Z,2.44
2022-11-29T00:04:45.007Z,2.44
2022-11-29T00:07:47.648Z,2.42
2022-11-29T00:10:50.338Z,2.39
2022-11-29T00:13:52.866Z,2.38
2022-11-29T00:17:02.673Z,2.35
2022-11-29T00:20:06.310Z,2.34
2022-11-29T00:23:09.225Z,2.34
2022-11-29T00:26:11.624Z,2.33
2022-11-29T00:29:14.370Z,2.33
2022-11-29T00:32:16.864Z,2.32
2022-11-29T00:35:19.320Z,2.34
2022-11-29T00:38:22.022Z,2.35
2022-11-29T00:41:24.588Z,2.36
2022-11-29T00:44:27.067Z,2.32
2022-11-29T00:47:29.459Z,2.35
2022-11-29T00:50:32.041Z,2.39
2022-11-29T00:53:35.773Z,2.38
2022-11-29T00:56:38.210Z,2.40
2022-11-29T00:59:40.534Z,2.40
2022-11-29T01:02:43.015Z,2.37
2022-11-29T01:05:46.212Z,2.39
2022-11-29T01:08:49.827Z,2.39
2022-11-29T01:11:52.252Z,2.37
2022-11-29T01:14:54.725Z,2.41
2022-11-29T01:17:57.056Z,2.41
2022-11-29T01:21:20.488Z,2.40
2022-11-29T01:24:23.071Z,2.39
2022-11-29T01:27:25.466Z,2.42
2022-11-29T01:30:27.926Z,2.39
2022-11-29T01:33:30.245Z,2.41
2022-11-29T01:36:33.280Z,2.37
2022-11-29T01:39:35.611Z,2.35
2022-11-29T01:42:38.090Z,2.35
2022-11-29T01:45:40.967Z,2.32
2022-11-29T01:48:43.519Z,2.30
2022-11-29T01:51:51.372Z,2.23
2022-11-29T01:54:58.858Z,2.20
2022-11-29T01:58:01.424Z,2.17
2022-11-29T02:01:03.855Z,2.13
2022-11-29T02:04:06.869Z,2.10
2022-11-29T02:07:09.835Z,2.05
2022-11-29T02:10:12.751Z,2.01
2022-11-29T02:13:44.289Z,1.97
2022-11-29T02:16:57.538Z,1.97
2022-11-29T02:20:09.169Z,1.95
2022-11-29T02:23:14.725Z,1.95
2022-11-29T02:26:47.823Z,1.94
2022-11-29T02:29:56.372Z,1.93
2022-11-29T02:33:34.094Z,1.93
2022-11-29T02:37:11.510Z,1.90
2022-11-29T02:40:44.522Z,1.87
2022-11-29T02:44:17.719Z,1.85
2022-11-29T02:48:01.485Z,1.83
2022-11-29T02:51:16.238Z,1.82
2022-11-29T02:54:30.638Z,1.81
2022-11-29T02:57:41.738Z,1.79
2022-11-29T03:01:19.253Z,1.77
2022-11-29T03:04:47.972Z,1.75
2022-11-29T03:08:27.502Z,1.70
2022-11-29T03:11:29.897Z,1.68
2022-11-29T03:14:56.667Z,1.65
2022-11-29T03:18:10.015Z,1.61
2022-11-29T03:21:23.512Z,1.59
2022-11-29T03:24:58.099Z,1.58
2022-11-29T03:28:31.040Z,1.53
2022-11-29T03:31:40.929Z,1.51
2022-11-29T03:35:14.000Z,1.48
2022-11-29T03:38:28.763Z,1.45
2022-11-29T03:41:55.729Z,1.43
2022-11-29T03:45:08.002Z,1.41
2022-11-29T03:48:13.051Z,1.41
2022-11-29T03:51:22.227Z,1.38
2022-11-29T03:54:56.267Z,1.37
2022-11-29T03:58:13.885Z,1.35
2022-11-29T04:01:22.152Z,1.35
2022-11-29T04:04:43.151Z,1.30
2022-11-29T04:08:01.251Z,1.27
2022-11-29T04:11:28.954Z,1.25
2022-11-29T04:14:34.272Z,1.23
2022-11-29T04:18:10.526Z,1.22
2022-11-29T04:21:31.301Z,1.20
2022-11-29T04:24:46.939Z,1.20
2022-11-29T04:27:58.207Z,1.18
2022-11-29T04:31:29.186Z,1.18
2022-11-29T04:34:59.342Z,1.17
2022-11-29T04:38:39.021Z,1.15
2022-11-29T04:42:03.253Z,1.20
2022-11-29T04:45:17.769Z,1.22
2022-11-29T04:48:59.305Z,1.27
2022-11-29T04:52:16.951Z,1.28
2022-11-29T04:55:35.810Z,1.28
2022-11-29T04:58:50.846Z,1.32
2022-11-29T05:02:20.310Z,1.33
2022-11-29T05:05:50.991Z,1.35
2022-11-29T05:08:59.361Z,1.35
2022-11-29T05:12:13.680Z,1.35
2022-11-29T05:15:22.098Z,1.36
2022-11-29T05:18:39.737Z,1.38
2022-11-29T05:21:47.981Z,1.36
2022-11-29T05:25:21.176Z,1.36
2022-11-29T05:39:20.924Z,1.24
2022-11-29T05:42:47.940Z,1.20
2022-11-29T05:46:00.287Z,1.13
2022-11-29T05:49:24.282Z,1.08
2022-11-29T05:52:35.699Z,1.06
2022-11-29T05:55:46.834Z,1.07
2022-11-29T05:58:58.644Z,0.98
2022-11-29T06:02:19.335Z,0.97
2022-11-29T06:05:57.268Z,0.95
2022-11-29T06:09:23.345Z,0.93
2022-11-29T06:12:27.100Z,0.91
2022-11-29T06:15:37.997Z,0.87
2022-11-29T06:18:40.155Z,0.81
2022-11-29T06:21:54.608Z,0.78
2022-11-29T06:25:15.724Z,0.78
2022-11-29T06:28:33.936Z,0.72
2022-11-29T06:31:46.664Z,0.75
2022-11-29T06:34:54.598Z,0.75
2022-11-29T06:37:58.666Z,0.75
2022-11-29T06:41:02.408Z,0.76
2022-11-29T06:44:06.205Z,0.78
2022-11-29T06:47:19.169Z,0.81
2022-11-29T06:50:48.021Z,0.85
2022-11-29T06:54:08.339Z,0.88
2022-11-29T06:57:10.528Z,0.93
2022-11-29T07:00:18.345Z,1.02
2022-11-29T07:03:36.614Z,1.05
2022-11-29T07:06:39.249Z,1.16
2022-11-29T07:09:43.515Z,1.21
2022-11-29T07:12:47.979Z,1.14
2022-11-29T07:16:11.921Z,1.17
2022-11-29T07:19:28.008Z,1.22
2022-11-29T07:22:47.399Z,1.26
2022-11-29T07:26:01.796Z,1.32
2022-11-29T07:29:19.946Z,1.26
2022-11-29T07:32:27.769Z,1.31
2022-11-29T07:35:47.869Z,1.31
2022-11-29T07:39:11.167Z,1.27
2022-11-29T07:42:37.421Z,1.34
2022-11-29T07:45:40.214Z,1.43
2022-11-29T07:48:42.822Z,1.45
2022-11-29T07:51:45.259Z,1.53
2022-11-29T07:54:47.847Z,1.56
2022-11-29T07:57:50.744Z,1.52
2022-11-29T08:00:53.084Z,1.54
2022-11-29T08:03:55.321Z,1.57
2022-11-29T08:07:01.136Z,1.58
2022-11-29T08:10:05.110Z,1.62
2022-11-29T08:13:07.284Z,1.61
2022-11-29T08:16:09.561Z,1.74
2022-11-29T08:19:13.021Z,1.80
2022-11-29T08:22:15.212Z,1.87
2022-11-29T08:25:17.518Z,1.83
2022-11-29T08:28:20.090Z,1.87
2022-11-29T08:31:22.558Z,1.90
2022-11-29T08:34:25.557Z,2.06
2022-11-29T08:37:27.762Z,1.97
2022-11-29T08:40:30.059Z,1.95
2022-11-29T08:43:32.617Z,2.00
2022-11-29T08:46:53.410Z,2.04
2022-11-29T08:50:01.404Z,2.00
2022-11-29T08:53:22.372Z,2.12
2022-11-29T08:57:10.044Z,2.15
2022-11-29T08:59:46.818Z,2.32
2022-11-29T09:02:49.587Z,2.40
2022-11-29T09:05:53.062Z,2.44
2022-11-29T09:08:57.109Z,2.46
2022-11-29T09:11:59.302Z,2.49
2022-11-29T09:15:03.072Z,2.53
2022-11-29T09:18:06.080Z,2.55
2022-11-29T09:21:10.268Z,2.67
2022-11-29T09:24:12.889Z,2.82
2022-11-29T09:27:15.113Z,2.91
2022-11-29T09:30:23.332Z,2.96
2022-11-29T09:33:25.971Z,3.00
2022-11-29T09:36:29.787Z,3.10
2022-11-29T09:39:32.284Z,3.01
2022-11-29T09:42:58.494Z,3.12
2022-11-29T09:46:18.400Z,3.22
2022-11-29T09:49:49.549Z,3.40
2022-11-29T09:53:17.110Z,3.65
2022-11-29T09:56:40.868Z,3.78
2022-11-29T09:59:48.212Z,3.76
2022-11-29T10:03:14.520Z,3.72
2022-11-29T10:06:23.781Z,3.81
2022-11-29T10:09:41.142Z,3.70
2022-11-29T10:12:57.004Z,3.70
2022-11-29T10:16:24.203Z,3.77
2022-11-29T10:19:44.848Z,3.63
2022-11-29T10:22:59.157Z,3.64
2022-11-29T10:26:01.408Z,3.81
2022-11-29T10:29:04.218Z,3.60
2022-11-29T10:32:14.464Z,3.46
2022-11-29T10:35:20.198Z,3.41
2022-11-29T10:38:31.951Z,3.49
2022-11-29T10:41:37.275Z,3.47
2022-11-29T10:44:39.435Z,3.49
2022-11-29T10:47:41.744Z,3.56
2022-11-29T10:50:45.821Z,3.64
2022-11-29T10:53:52.510Z,3.56
2022-11-29T10:56:57.685Z,3.63
2022-11-29T10:59:59.939Z,3.58
2022-11-29T11:03:27.546Z,3.42
2022-11-29T11:06:47.192Z,3.42
2022-11-29T11:09:53.486Z,3.46
2022-11-29T11:13:07.346Z,3.50
2022-11-29T11:16:26.825Z,3.55
2022-11-29T11:19:33.744Z,3.53
2022-11-29T11:22:40.000Z,3.48
2022-11-29T11:25:42.243Z,3.44
2022-11-29T11:28:47.466Z,3.35
2022-11-29T11:31:57.414Z,3.45
2022-11-29T11:35:01.626Z,3.56
2022-11-29T11:38:05.459Z,3.66
2022-11-29T11:41:18.602Z,3.64
2022-11-29T11:44:53.727Z,3.65
2022-11-29T11:47:59.375Z,3.64
2022-11-29T11:51:02.147Z,3.62
2022-11-29T11:54:04.557Z,3.67
2022-11-29T11:57:19.744Z,3.69
2022-11-29T12:01:09.384Z,3.75
2022-11-29T12:04:20.580Z,3.76
2022-11-29T12:07:59.853Z,3.59
2022-11-29T12:11:02.791Z,3.69
2022-11-29T12:14:18.947Z,3.62
2022-11-29T12:17:31.938Z,3.66
2022-11-29T12:20:40.043Z,3.67
2022-11-29T12:23:49.460Z,3.63
2022-11-29T12:26:58.297Z,3.61
2022-11-29T12:30:01.233Z,3.59
2022-11-29T12:33:24.937Z,3.58
2022-11-29T12:36:55.289Z,3.62
2022-11-29T12:40:06.136Z,3.57
2022-11-29T12:43:24.379Z,3.55
2022-11-29T12:46:29.197Z,3.60
2022-11-29T12:49:46.022Z,3.58
2022-11-29T12:53:27.264Z,3.59
2022-11-29T12:56:37.902Z,3.55
2022-11-29T13:00:14.354Z,3.56
2022-11-29T13:03:59.142Z,3.53
2022-11-29T13:07:13.909Z,3.56
2022-11-29T13:10:46.518Z,3.53
2022-11-29T13:14:40.522Z,3.47
2022-11-29T13:17:44.264Z,3.44
2022-11-29T13:20:58.146Z,3.49
2022-11-29T13:24:10.239Z,3.53
2022-11-29T13:27:24.441Z,3.49
2022-11-29T13:30:27.413Z,3.46
2022-11-29T13:33:52.107Z,3.44
2022-11-29T13:37:01.725Z,3.44
2022-11-29T13:40:34.225Z,3.43
2022-11-29T13:43:52.157Z,3.39
2022-11-29T13:47:00.366Z,3.43
2022-11-29T13:50:37.842Z,3.39
2022-11-29T13:53:48.576Z,3.41
2022-11-29T13:57:03.028Z,3.42
2022-11-29T14:00:06.116Z,3.39
2022-11-29T14:03:23.747Z,3.36
2022-11-29T14:06:48.293Z,3.31
2022-11-29T14:09:58.489Z,3.33
2022-11-29T14:13:02.174Z,3.33
2022-11-29T14:16:07.462Z,3.37
2022-11-29T14:19:10.071Z,3.33
2022-11-29T14:22:21.768Z,3.31
2022-11-29T14:25:50.562Z,3.27
2022-11-29T14:28:57.547Z,3.27
2022-11-29T14:32:00.196Z,3.24
2022-11-29T14:35:05.191Z,3.23
2022-11-29T14:38:25.051Z,3.22
2022-11-29T14:41:56.208Z,3.19
2022-11-29T14:45:04.954Z,3.20
2022-11-29T14:48:26.558Z,3.21
2022-11-29T14:51:34.410Z,3.18
2022-11-29T14:54:54.411Z,3.15
2022-11-29T14:58:04.314Z,3.10
2022-11-29T15:01:10.649Z,3.10
2022-11-29T15:04:13.811Z,3.10
2022-11-29T15:07:20.120Z,3.09
2022-11-29T15:10:30.077Z,3.09
2022-11-29T15:13:38.668Z,3.06
2022-11-29T15:16:56.387Z,3.08
2022-11-29T15:20:29.706Z,3.16
2022-11-29T15:23:41.702Z,3.15
2022-11-29T15:26:58.207Z,3.15
2022-11-29T15:30:38.688Z,3.16
2022-11-29T15:33:42.902Z,3.19
2022-11-29T15:36:45.120Z,3.18
2022-11-29T15:39:47.272Z,3.07
2022-11-29T15:43:00.254Z,3.03
2022-11-29T15:46:02.703Z,2.98
2022-11-29T15:49:34.704Z,2.96
2022-11-29T15:52:38.597Z,2.90
2022-11-29T15:55:41.337Z,2.97
2022-11-29T15:58:45.591Z,2.98
2022-11-29T16:01:52.902Z,2.95
2022-11-29T16:04:58.377Z,2.95
2022-11-29T16:08:14.534Z,2.94
2022-11-29T16:11:21.253Z,2.97
2022-11-29T16:14:30.739Z,2.99
2022-11-29T16:17:35.334Z,2.98
2022-11-29T16:20:37.717Z,2.97
2022-11-29T16:23:44.822Z,2.94
2022-11-29T16:26:49.488Z,2.92
2022-11-29T16:29:55.331Z,2.89
2022-11-29T16:33:03.693Z,2.85
2022-11-29T16:36:19.366Z,2.85
2022-11-29T16:39:25.420Z,2.80
2022-11-29T16:42:33.769Z,2.78
2022-11-29T16:45:47.511Z,2.78
2022-11-29T16:48:51.433Z,2.79
2022-11-29T16:51:54.678Z,2.76
2022-11-29T16:54:57.876Z,2.75
2022-11-29T16:58:00.306Z,2.75
2022-11-29T17:01:25.837Z,2.70
2022-11-29T17:04:28.414Z,2.68
2022-11-29T17:07:33.965Z,2.72
2022-11-29T17:10:36.713Z,2.71
2022-11-29T17:13:39.542Z,2.71
2022-11-29T17:16:41.887Z,2.72
2022-11-29T17:19:44.392Z,2.71
2022-11-29T17:22:46.797Z,2.68
2022-11-29T17:26:09.425Z,2.69
2022-11-29T17:29:13.437Z,2.68
2022-11-29T17:32:17.929Z,2.65
2022-11-29T17:35:22.569Z,2.61
2022-11-29T17:38:24.900Z,2.58
2022-11-29T17:41:28.553Z,2.60
2022-11-29T17:44:30.845Z,2.55
2022-11-29T17:47:34.015Z,2.56
2022-11-29T17:50:39.571Z,2.55
2022-11-29T17:53:42.240Z,2.52
2022-11-29T17:56:44.937Z,2.52
2022-11-29T17:59:47.874Z,2.47
2022-11-29T18:02:51.602Z,2.46
2022-11-29T18:05:53.904Z,2.46
2022-11-29T18:09:00.283Z,2.41
2022-11-29T18:12:03.119Z,2.36
2022-11-29T18:15:06.198Z,2.36
2022-11-29T18:18:08.877Z,2.36
2022-11-29T18:21:12.690Z,2.35
2022-11-29T18:24:15.231Z,2.38
2022-11-29T18:27:17.887Z,2.39
2022-11-29T18:30:20.726Z,2.37
2022-11-29T18:33:24.492Z,2.35
2022-11-29T18:36:33.308Z,2.32
2022-11-29T18:39:35.869Z,2.30
2022-11-29T18:42:39.390Z,2.29
2022-11-29T18:45:42.245Z,2.27
2022-11-29T18:48:46.411Z,2.27
2022-11-29T18:51:50.569Z,2.30
2022-11-29T18:54:54.495Z,2.30
2022-11-29T18:57:57.133Z,2.24
2022-11-29T19:01:07.636Z,2.24
2022-11-29T19:04:13.762Z,2.21
2022-11-29T19:07:17.321Z,2.22
2022-11-29T19:10:20.169Z,2.19
2022-11-29T19:13:23.053Z,2.17
2022-11-29T19:16:26.772Z,2.14
2022-11-29T19:19:29.219Z,2.16
2022-11-29T19:22:32.686Z,2.09
2022-11-29T19:25:35.616Z,2.09
2022-11-29T19:28:40.599Z,2.09
2022-11-29T19:31:43.908Z,2.07
2022-11-29T19:34:47.401Z,2.05
2022-11-29T19:37:50.271Z,2.04
2022-11-29T19:40:53.341Z,2.05
2022-11-29T19:43:58.273Z,2.03
2022-11-29T19:47:01.203Z,2.03
2022-11-29T19:50:04.107Z,2.05
2022-11-29T19:53:07.060Z,2.01
2022-11-29T19:56:13.824Z,2.01
2022-11-29T19:59:16.997Z,1.98
2022-11-29T20:02:28.487Z,1.98
2022-11-29T20:05:32.672Z,1.98
2022-11-29T20:15:34.782Z,1.96
2022-11-29T20:22:56.236Z,1.99
2022-11-29T20:29:37.877Z,1.95
2022-11-29T20:36:49.697Z,1.91
2022-11-29T20:40:30.052Z,1.90
2022-11-29T20:43:42.280Z,1.88
2022-11-29T20:46:45.334Z,1.85
2022-11-29T20:49:49.378Z,1.83
2022-11-29T20:53:19.724Z,1.80
2022-11-29T20:56:22.692Z,1.79
2022-11-29T20:59:25.068Z,1.77
2022-11-29T21:02:28.494Z,1.77
2022-11-29T21:05:31.479Z,1.79
2022-11-29T21:08:34.152Z,1.80
2022-11-29T21:11:37.021Z,1.78
2022-11-29T21:14:39.671Z,1.81
2022-11-29T21:17:44.028Z,1.78
2022-11-29T21:21:06.996Z,1.79
2022-11-29T21:24:31.503Z,1.80
2022-11-29T21:27:35.065Z,1.77
2022-11-29T21:30:38.171Z,1.78
2022-11-29T21:33:40.696Z,1.77
2022-11-29T21:36:44.566Z,1.77
2022-11-29T21:39:49.366Z,1.79
2022-11-29T21:42:51.756Z,1.76
2022-11-29T21:45:54.133Z,1.70
2022-11-29T21:48:56.565Z,1.78
2022-11-29T21:52:01.296Z,1.78
2022-11-29T21:55:03.945Z,1.77
2022-11-29T21:58:06.245Z,1.78
2022-11-29T22:01:11.348Z,1.78
2022-11-29T22:04:13.875Z,1.81
2022-11-29T22:07:16.289Z,1.78
2022-11-29T22:10:18.698Z,1.81
2022-11-29T22:13:21.320Z,1.81
2022-11-29T22:16:23.994Z,1.82
2022-11-29T22:19:32.057Z,1.80
2022-11-29T22:22:34.486Z,1.79
2022-11-29T22:25:36.736Z,1.78
2022-11-29T22:28:39.347Z,1.78
2022-11-29T22:31:43.047Z,1.76
2022-11-29T22:34:45.728Z,1.74
2022-11-29T22:37:48.316Z,1.76
2022-11-29T22:40:50.725Z,1.76
2022-11-29T22:43:53.470Z,1.77
2022-11-29T22:46:56.270Z,1.78
2022-11-29T22:49:58.752Z,1.79
2022-11-29T22:53:01.299Z,1.78
2022-11-29T22:56:06.276Z,1.78
2022-11-29T22:59:09.974Z,1.77
2022-11-29T23:02:12.864Z,1.77
2022-11-29T23:05:15.283Z,1.74
2022-11-29T23:08:18.061Z,1.74
2022-11-29T23:11:26.791Z,1.73
2022-11-29T23:14:29.141Z,1.72
2022-11-29T23:17:31.582Z,1.72
2022-11-29T23:20:33.873Z,1.75
2022-11-29T23:23:36.893Z,1.76
2022-11-29T23:26:41.459Z,1.77
2022-11-29T23:29:44.371Z,1.75
2022-11-29T23:32:46.755Z,1.82
2022-11-29T23:35:51.337Z,1.84
2022-11-29T23:38:54.137Z,1.84
2022-11-29T23:41:56.558Z,1.86
2022-11-29T23:44:58.895Z,1.86
2022-11-29T23:48:01.225Z,1.87
2022-11-29T23:51:03.727Z,1.88
2022-11-29T23:54:06.359Z,1.85
2022-11-29T23:57:08.797Z,1.86
